Latest Weather Observations for Mount Baw Baw

IDV60801

Issued at 6:05 pm EST Monday 28 July 2014 (issued every 30 minutes, with the page automatically refreshed every 10 minutes)

About weather observations | Map of weather stations | Latest weather observations for VIC | Other Formats
Station Details ID: 085291 Name: MOUNT BAW BAW Lat: -37.84 Lon: 146.27 Height: 1561.0 m
Data from the previous 72 hours. | See also: Recent months at Mount Baw Baw
Date/Time
EST
Temp
°C
App
Temp
°C
Dew
Point
Rel
Hum
%
Delta-T
°C
Wind Press
QNH
hPa
Press
MSL
hPa
Rain
since 9 am
mm
Dir
 
Spd
km/h
Gust
km/h
Spd
kts
Gust
kts
28/06:00pm 1.9 -3.1 1.5 97 0.2 NNW 17 35 - 19 - - 0.0
28/05:30pm 2.3 -2.4 1.1 92 0.5 NW 15 32 - 17 - - 0.0
28/05:00pm 2.9 -2.1 1.1 88 0.8 NNW 17 39 - 21 - - 0.0
28/04:30pm 3.4 -2.0 1.0 84 1.0 N 19 37 - 20 - - 0.0
28/04:00pm 4.0 -2.1 0.7 79 1.4 N 22 39 - 21 - - 0.0
28/03:30pm 4.5 -1.2 0.5 75 1.7 WNW 20 33 - 18 - - 0.0
28/03:00pm 4.9 -0.8 0.3 72 2.0 NNW 20 41 - 22 - - 0.0
28/02:30pm 5.0 -1.5 0.6 73 1.9 NW 24 46 - 25 - - 0.0
28/02:00pm 4.9 -0.6 0.9 75 1.7 NNW 19 39 - 21 - - 0.0
28/01:30pm 4.6 -1.0 1.1 78 1.5 NNW 20 41 - 22 - - 0.0
28/01:00pm 4.6 -0.9 0.7 76 1.7 NNW 19 39 - 21 - - 0.0
28/12:30pm 4.5 -2.0 0.3 74 1.8 WNW 24 48 - 26 - - 0.0
28/12:00pm 4.6 -1.0 0.0 72 1.9 NNW 19 39 - 21 - - 0.0
28/11:30am 4.6 -0.3 -0.2 71 2.0 N 15 30 - 16 - - 0.0
28/11:00am 4.2 -1.0 -0.2 73 1.8 NNW 17 39 - 21 - - 0.0
28/10:30am 3.7 -1.9 -0.1 76 1.6 NW 19 39 - 21 - - 0.0
28/10:00am 3.0 -2.2 0.4 83 1.1 NW 17 30 - 16 - - 0.0
28/09:30am 2.3 -3.2 0.4 87 0.8 NW 19 37 - 20 - - 0.0
28/09:00am 1.9 -3.7 0.1 88 0.7 NW 19 35 - 19 - - 0.0
28/08:30am 1.8 -4.0 0.2 89 0.7 NW 20 39 - 21 - - 0.0
28/08:00am 1.2 -4.4 0.2 93 0.4 NW 19 35 - 19 - - 0.0
28/07:30am 1.2 -4.5 0.3 94 0.4 WNW 20 37 - 20 - - 0.0
28/07:00am 1.0 -4.7 0.4 96 0.2 NW 20 35 - 19 - - 0.0
28/06:30am 0.9 -4.8 0.8 99 0.0 NW 20 39 - 21 - - 0.0
28/06:00am 0.9 -4.8 0.8 99 0.0 NW 20 39 - 21 - - 0.0
28/05:30am 0.9 -4.8 0.8 99 0.0 NW 20 33 - 18 - - 0.0
28/05:00am 0.9 -4.8 0.8 99 0.0 NW 20 41 - 22 - - 0.0
28/04:30am 0.7 -5.0 0.6 99 0.0 NNW 20 41 - 22 - - 0.0
28/04:00am 0.8 -4.9 0.7 99 0.0 NW 20 35 - 19 - - 0.0
28/03:30am 0.8 -4.9 0.7 99 0.0 NW 20 41 - 22 - - 0.0
28/03:00am 0.8 -4.9 0.7 99 0.0 NW 20 37 - 20 - - 0.0
28/02:30am 0.9 -5.1 0.8 99 0.0 NW 22 44 - 24 - - 0.0
28/02:00am 0.9 -5.1 0.8 99 0.0 NW 22 39 - 21 - - 0.0
28/01:30am 0.9 -5.1 0.8 99 0.0 NW 22 43 - 23 - - 0.0
28/01:00am 0.8 -5.3 0.7 99 0.0 NNW 22 52 - 28 - - 0.0
28/12:30am 0.7 -5.4 0.6 99 0.0 NNW 22 43 - 23 - - 0.0
28/12:00am 0.6 -5.5 0.5 99 0.0 NNW 22 44 - 24 - - 0.0
 
Date/Time
EST
Temp
°C
App
Temp
°C
Dew
Point
Rel
Hum
%
Delta-T
°C
Wind Press
QNH
hPa
Press
MSL
hPa
Rain
since 9 am
mm
Dir
 
Spd
km/h
Gust
km/h
Spd
kts
Gust
kts
27/11:30pm 0.5 -5.6 0.2 98 0.1 NW 22 43 - 23 - - 0.0
27/11:00pm 0.6 -5.5 0.5 99 0.0 NNW 22 41 - 22 - - 0.0
27/10:30pm 0.7 -5.4 0.6 99 0.0 NW 22 43 - 23 - - 0.0
27/10:00pm 0.7 -5.0 0.6 99 0.0 NNW 20 46 - 25 - - 0.0
27/09:30pm 0.7 -5.0 0.6 99 0.0 NNW 20 33 - 18 - - 0.0
27/09:00pm 0.7 -5.1 0.0 95 0.3 NNW 20 37 - 20 - - 0.0
27/08:30pm 0.8 -4.4 -0.1 94 0.4 NW 17 35 - 19 - - 0.0
27/08:00pm 1.2 -4.5 -0.6 88 0.7 NNW 19 35 - 19 - - 0.0
27/07:30pm 1.6 -4.2 -1.6 79 1.3 NNW 19 33 - 18 - - 0.0
27/07:00pm 0.7 -4.8 0.6 99 0.0 NNW 19 37 - 20 - - 0.0
27/06:30pm 0.7 -5.0 0.3 97 0.2 NW 20 35 - 19 - - 0.0
27/06:00pm 0.6 -5.1 0.3 98 0.1 NW 20 35 - 19 - - 0.0
27/05:30pm 0.6 -4.5 0.5 99 0.0 NW 17 33 - 18 - - 0.0
27/05:00pm 1.1 -3.7 -0.1 92 0.5 NW 15 28 - 15 - - 0.0
27/04:30pm 1.4 -3.5 -0.4 88 0.7 NW 15 32 - 17 - - 0.0
27/04:00pm 1.5 -3.0 -0.3 88 0.7 WNW 13 28 - 15 - - 0.0
27/03:30pm 1.9 -2.7 -0.8 82 1.1 W 13 28 - 15 - - 0.0
27/03:00pm 2.6 -2.1 -2.1 71 1.8 N 13 26 - 14 - - 0.0
27/02:30pm 2.3 -2.5 -2.4 71 1.8 NNW 13 28 - 15 - - 0.0
27/02:00pm 3.0 -1.5 -0.3 79 1.4 NNE 13 24 - 13 - - 0.0
27/01:30pm 2.5 -1.9 0.1 84 1.0 NNW 13 24 - 13 - - 0.0
27/01:00pm 3.0 -1.4 0.2 82 1.2 N 13 26 - 14 - - 0.0
27/12:30pm 2.9 -1.5 0.5 84 1.0 N 13 24 - 13 - - 0.0
27/12:00pm 2.5 -1.7 1.6 94 0.4 N 13 28 - 15 - - 0.0
27/11:30am 2.6 -1.5 2.5 99 0.0 N 13 26 - 14 - - 0.0
27/11:00am 2.4 -2.1 2.3 99 0.0 NNW 15 28 - 15 - - 0.0
27/10:30am 1.3 -4.1 1.2 99 0.0 NW 19 30 - 16 - - 0.0
27/10:00am 1.1 -3.2 1.0 99 0.0 NW 13 24 - 13 - - 0.0
27/09:30am 0.9 -3.4 0.8 99 0.0 WNW 13 22 - 12 - - 0.0
27/09:00am 0.6 -4.2 0.5 99 0.0 W 15 26 - 14 - - 6.8
27/08:30am 0.5 -4.3 0.4 99 0.0 W 15 26 - 14 - - 6.8
27/08:00am 0.5 -3.9 0.4 99 0.0 W 13 22 - 12 - - 6.8
27/07:30am 0.3 -4.1 0.2 99 0.0 WSW 13 22 - 12 - - 6.8
27/07:00am 0.2 -4.6 0.1 99 0.0 WSW 15 20 - 11 - - 6.8
27/06:30am 0.3 -4.9 0.2 99 0.0 WSW 17 22 - 12 - - 6.8
27/06:00am 0.3 -4.5 0.2 99 0.0 WSW 15 20 - 11 - - 6.8
27/05:30am 0.7 -4.4 0.6 99 0.0 SW 17 22 - 12 - - 6.8
27/05:00am 1.2 -4.2 1.1 99 0.0 SW 19 28 - 15 - - 6.8
27/04:30am 1.4 -3.6 1.3 99 0.0 SW 17 24 - 13 - - 6.8
27/04:00am 1.6 -3.8 1.5 99 0.0 SW 19 26 - 14 - - 6.8
27/03:30am 1.7 -3.6 1.6 99 0.0 SW 19 26 - 14 - - 6.8
27/03:00am 1.7 -3.6 1.6 99 0.0 SW 19 26 - 14 - - 6.8
27/02:30am 1.9 -3.4 1.8 99 0.0 SW 19 28 - 15 - - 6.4
27/02:00am 1.7 -3.8 1.6 99 0.0 SW 20 28 - 15 - - 6.0
27/01:30am 1.7 -3.3 1.6 99 0.0 SW 17 26 - 14 - - 5.6
27/01:00am 1.7 -4.2 1.6 99 0.0 SW 22 32 - 17 - - 5.4
27/12:30am 1.7 -4.2 1.6 99 0.0 SW 22 33 - 18 - - 5.4
27/12:00am 1.7 -4.2 1.6 99 0.0 WSW 22 33 - 18 - - 5.4
 
Date/Time
EST
Temp
°C
App
Temp
°C
Dew
Point
Rel
Hum
%
Delta-T
°C
Wind Press
QNH
hPa
Press
MSL
hPa
Rain
since 9 am
mm
Dir
 
Spd
km/h
Gust
km/h
Spd
kts
Gust
kts
26/11:30pm 1.7 -5.0 1.6 99 0.0 WSW 26 39 - 21 - - 5.4
26/11:00pm 1.7 -5.4 1.6 99 0.0 SW 28 43 - 23 - - 5.4
26/10:30pm 1.8 -4.9 1.7 99 0.0 WSW 26 35 - 19 - - 5.2
26/10:00pm 1.9 -5.1 1.8 99 0.0 WSW 28 43 - 23 - - 5.2
26/09:30pm 2.0 -5.0 1.9 99 0.0 WSW 28 44 - 24 - - 4.6
26/09:24pm 1.9 -5.1 1.8 99 0.0 WSW 28 46 - 25 - - 4.6
26/09:00pm 1.8 -5.2 1.7 99 0.0 WSW 28 41 - 22 - - 3.8
26/08:30pm 1.9 -4.4 1.8 99 0.0 WSW 24 35 - 19 - - 3.6
26/08:00pm 1.9 -4.4 1.8 99 0.0 WSW 24 39 - 21 - - 3.6
26/07:30pm 1.9 -4.7 1.8 99 0.0 WSW 26 41 - 22 - - 3.6
26/07:00pm 2.0 -4.6 1.9 99 0.0 WSW 26 41 - 22 - - 3.6
26/06:30pm 2.1 -4.1 2.0 99 0.0 WSW 24 43 - 23 - - 3.6
26/06:00pm 1.9 -4.7 1.8 99 0.0 WSW 26 41 - 22 - - 3.2
26/05:30pm 1.8 -4.5 1.7 99 0.0 WSW 24 39 - 21 - - 2.8
26/05:00pm 1.9 -4.4 1.8 99 0.0 WSW 24 37 - 20 - - 2.6
26/04:30pm 1.9 -4.0 1.8 99 0.0 WSW 22 32 - 17 - - 2.4
26/04:00pm 1.8 -3.7 1.7 99 0.0 WSW 20 32 - 17 - - 2.2
26/03:30pm 1.7 -4.2 1.6 99 0.0 W 22 33 - 18 - - 1.6
26/03:00pm 1.4 -4.2 1.3 99 0.0 W 20 35 - 19 - - 1.6
26/02:30pm 1.4 -4.2 1.3 99 0.0 W 20 37 - 20 - - 1.2
26/02:00pm 1.4 -4.2 1.3 99 0.0 WSW 20 35 - 19 - - 1.0
26/01:30pm 1.5 -4.1 1.4 99 0.0 W 20 32 - 17 - - 1.0
26/01:00pm 1.5 -4.4 1.4 99 0.0 W 22 37 - 20 - - 0.8
26/12:30pm 1.5 -4.4 1.4 99 0.0 W 22 37 - 20 - - 0.8
26/12:00pm 1.6 -4.7 1.5 99 0.0 W 24 37 - 20 - - 0.8
26/11:30am 1.5 -4.1 1.4 99 0.0 W 20 35 - 19 - - 0.8
26/11:00am 1.6 -3.8 1.5 99 0.0 WSW 19 30 - 16 - - 0.8
26/10:30am 1.7 -4.2 1.6 99 0.0 WSW 22 35 - 19 - - 0.8
26/10:00am 1.7 -3.8 1.6 99 0.0 W 20 32 - 17 - - 0.4
26/09:30am 1.6 -3.8 1.5 99 0.0 W 19 32 - 17 - - 0.4
26/09:00am 1.6 -3.8 1.5 99 0.0 W 19 30 - 16 - - 1.6
26/08:30am 1.5 -4.1 1.4 99 0.0 W 20 30 - 16 - - 1.2
26/08:00am 1.4 -4.0 1.3 99 0.0 W 19 32 - 17 - - 1.2
26/07:30am 1.1 -4.3 1.0 99 0.0 W 19 32 - 17 - - 1.0
26/07:00am 1.2 -4.2 1.1 99 0.0 W 19 32 - 17 - - 1.0
26/06:30am 1.1 -4.0 1.0 99 0.0 W 17 28 - 15 - - 1.0
26/06:00am 1.0 -4.1 0.9 99 0.0 W 17 28 - 15 - - 0.8
26/05:30am 1.1 -4.3 1.0 99 0.0 WNW 19 32 - 17 - - 0.8
26/05:00am 1.1 -4.0 1.0 99 0.0 WNW 17 32 - 17 - - 0.8
26/04:30am 1.2 -3.8 1.1 99 0.0 WNW 17 30 - 16 - - 0.8
26/04:00am 1.3 -3.7 1.2 99 0.0 WNW 17 30 - 16 - - 0.8
26/03:30am 1.4 -2.5 1.3 99 0.0 WNW 11 24 - 13 - - 0.8
26/03:00am 1.5 -2.7 1.4 99 0.0 WNW 13 22 - 12 - - 0.8
26/02:30am 1.6 -2.6 1.5 99 0.0 WNW 13 22 - 12 - - 0.6
26/02:00am 1.7 -2.5 1.6 99 0.0 WNW 13 22 - 12 - - 0.4
26/01:30am 1.7 -2.1 1.6 99 0.0 NW 11 24 - 13 - - 0.4
26/01:00am 1.8 -2.4 1.7 99 0.0 NW 13 22 - 12 - - 0.4
26/12:30am 1.7 -2.5 1.6 99 0.0 NW 13 22 - 12 - - 0.2
26/12:00am 1.4 -2.1 1.3 99 0.0 NNW 9 17 - 9 - - 0.2
 
Date/Time
EST
Temp
°C
App
Temp
°C
Dew
Point
Rel
Hum
%
Delta-T
°C
Wind Press
QNH
hPa
Press
MSL
hPa
Rain
since 9 am
mm
Dir
 
Spd
km/h
Gust
km/h
Spd
kts
Gust
kts
25/11:30pm 1.6 -3.0 1.5 99 0.0 NNW 15 30 - 16 - - 0.2
25/11:00pm 1.8 -2.8 1.7 99 0.0 NW 15 32 - 17 - - 0.2
25/10:30pm 1.9 -2.3 1.8 99 0.0 NNW 13 22 - 12 - - 0.0
25/10:00pm 1.9 -2.3 1.8 99 0.0 NNW 13 30 - 16 - - 0.0
25/09:30pm 1.9 -2.7 1.8 99 0.0 N 15 30 - 16 - - 0.0
25/09:00pm 1.8 -2.4 1.7 99 0.0 N 13 24 - 13 - - 0.0
25/08:30pm 1.9 -2.7 1.8 99 0.0 NNW 15 24 - 13 - - 0.0
25/08:00pm 1.7 -2.9 1.6 99 0.0 NW 15 32 - 17 - - 0.0
25/07:30pm 1.8 -2.8 1.7 99 0.0 NNW 15 26 - 14 - - 0.0
25/07:00pm 1.6 -3.4 1.5 99 0.0 NNW 17 37 - 20 - - 0.0
25/06:30pm 1.6 -3.4 1.5 99 0.0 N 17 39 - 21 - - 0.0

Other Formats:

Comma delimited format used in spreadsheet applications
http://www.bom.gov.au/fwo/IDV60801/IDV60801.95901.axf

JavaScript Object Notation format (JSON) in row-major order
http://www.bom.gov.au/fwo/IDV60801/IDV60801.95901.json